createdAt,value
2018-08-08T00:01:35.546Z,25.40
2018-08-08T00:04:03.873Z,25.40
2018-08-08T00:06:32.138Z,25.40
2018-08-08T00:09:00.313Z,25.30
2018-08-08T00:11:28.434Z,25.30
2018-08-08T00:13:56.601Z,25.30
2018-08-08T00:16:24.781Z,25.30
2018-08-08T00:18:53.099Z,25.20
2018-08-08T00:21:21.258Z,25.20
2018-08-08T00:23:49.497Z,25.20
2018-08-08T00:26:17.641Z,25.20
2018-08-08T00:28:45.813Z,25.20
2018-08-08T00:31:14.009Z,25.10
2018-08-08T00:33:42.190Z,25.10
2018-08-08T00:36:10.399Z,25.10
2018-08-08T00:38:38.561Z,25.10
2018-08-08T00:41:06.766Z,25.10
2018-08-08T00:43:34.939Z,25.10
2018-08-08T00:46:03.253Z,25.10
2018-08-08T00:48:31.953Z,25.00
2018-08-08T00:51:00.531Z,25.00
2018-08-08T00:53:28.625Z,24.90
2018-08-08T00:55:56.802Z,24.80
2018-08-08T00:58:24.982Z,24.80
2018-08-08T01:00:53.185Z,24.80
2018-08-08T01:03:21.354Z,24.70
2018-08-08T01:05:49.563Z,24.70
2018-08-08T01:08:17.771Z,24.60
2018-08-08T01:10:45.926Z,24.60
2018-08-08T01:15:53.143Z,24.40
2018-08-08T01:18:21.346Z,24.30
2018-08-08T01:20:49.517Z,24.30
2018-08-08T01:23:17.693Z,24.30
2018-08-08T01:25:45.791Z,24.30
2018-08-08T01:28:14.084Z,24.30
2018-08-08T01:30:42.273Z,24.30
2018-08-08T01:33:10.441Z,24.20
2018-08-08T01:35:38.538Z,24.20
2018-08-08T01:38:06.733Z,24.20
2018-08-08T01:40:34.924Z,24.20
2018-08-08T01:43:03.113Z,24.20
2018-08-08T01:45:31.331Z,24.20
2018-08-08T01:47:59.475Z,24.10
2018-08-08T01:50:27.995Z,24.10
2018-08-08T01:52:56.150Z,24.10
2018-08-08T01:55:24.338Z,24.00
2018-08-08T01:57:52.523Z,24.00
2018-08-08T02:00:20.705Z,24.00
2018-08-08T02:02:48.889Z,24.00
2018-08-08T02:05:16.984Z,23.90
2018-08-08T02:07:45.184Z,23.90
2018-08-08T02:10:18.622Z,23.80
2018-08-08T02:12:46.997Z,23.70
2018-08-08T02:15:15.168Z,23.70
2018-08-08T02:17:43.345Z,23.70
2018-08-08T02:20:12.173Z,23.60
2018-08-08T02:22:40.985Z,23.60
2018-08-08T02:25:10.138Z,23.60
2018-08-08T02:27:38.250Z,23.60
2018-08-08T02:30:12.142Z,23.50
2018-08-08T02:32:40.263Z,23.50
2018-08-08T02:35:08.437Z,23.40
2018-08-08T02:37:36.632Z,23.40
2018-08-08T02:40:05.737Z,23.40
2018-08-08T02:42:33.845Z,23.40
2018-08-08T02:45:02.342Z,23.40
2018-08-08T02:47:30.497Z,23.40
2018-08-08T02:49:58.684Z,23.40
2018-08-08T02:52:26.874Z,23.40
2018-08-08T02:54:55.059Z,23.40
2018-08-08T02:57:23.261Z,23.40
2018-08-08T02:59:51.447Z,23.40
2018-08-08T03:02:19.654Z,23.30
2018-08-08T03:04:47.802Z,23.10
2018-08-08T03:07:16.018Z,22.90
2018-08-08T03:09:44.243Z,22.80
2018-08-08T03:12:12.402Z,22.60
2018-08-08T03:14:40.589Z,22.50
2018-08-08T03:17:08.770Z,22.40
2018-08-08T03:19:37.015Z,22.30
2018-08-08T03:22:05.152Z,22.30
2018-08-08T03:24:33.338Z,22.30
2018-08-08T03:27:01.514Z,22.30
2018-08-08T03:29:29.710Z,22.30
2018-08-08T03:31:57.893Z,22.20
2018-08-08T03:34:26.073Z,22.30
2018-08-08T03:36:54.270Z,22.20
2018-08-08T03:39:22.445Z,22.20
2018-08-08T03:41:50.641Z,22.30
2018-08-08T03:44:18.814Z,22.30
2018-08-08T03:46:47.018Z,22.20
2018-08-08T03:49:15.193Z,22.20
2018-08-08T03:51:43.405Z,22.20
2018-08-08T03:54:11.557Z,22.10
2018-08-08T03:56:39.794Z,22.10
2018-08-08T03:59:07.958Z,22.10
2018-08-08T04:01:36.138Z,22.10
2018-08-08T04:04:04.318Z,22.10
2018-08-08T04:06:32.529Z,22.10
2018-08-08T04:09:00.687Z,22.10
2018-08-08T04:11:28.883Z,22.10
2018-08-08T04:13:57.061Z,22.00
2018-08-08T04:16:25.259Z,22.00
2018-08-08T04:18:53.429Z,22.00
2018-08-08T04:21:21.626Z,22.00
2018-08-08T04:23:49.801Z,22.10
2018-08-08T04:26:17.985Z,22.20
2018-08-08T04:28:46.061Z,22.40
2018-08-08T04:31:14.234Z,22.50
2018-08-08T04:33:42.345Z,22.60
2018-08-08T04:36:10.505Z,22.70
2018-08-08T04:38:38.614Z,22.90
2018-08-08T04:41:06.795Z,23.00
2018-08-08T04:43:35.006Z,23.00
2018-08-08T04:46:03.167Z,22.90
2018-08-08T04:48:31.349Z,22.80
2018-08-08T04:50:59.588Z,22.60
2018-08-08T04:53:27.658Z,22.50
2018-08-08T04:55:55.796Z,22.50
2018-08-08T04:58:23.899Z,22.50
2018-08-08T05:00:52.081Z,22.40
2018-08-08T05:03:20.174Z,22.40
2018-08-08T05:05:48.350Z,22.50
2018-08-08T05:08:16.542Z,22.50
2018-08-08T05:10:44.718Z,22.40
2018-08-08T05:13:12.914Z,22.30
2018-08-08T05:15:41.094Z,22.30
2018-08-08T05:18:09.287Z,22.30
2018-08-08T05:20:37.494Z,22.40
2018-08-08T05:23:06.278Z,22.40
2018-08-08T05:25:34.454Z,22.50
2018-08-08T05:28:02.647Z,22.50
2018-08-08T05:30:31.766Z,22.60
2018-08-08T05:32:59.848Z,22.70
2018-08-08T05:35:28.128Z,22.70
2018-08-08T05:37:56.220Z,22.80
2018-08-08T05:40:24.938Z,23.00
2018-08-08T05:42:53.850Z,23.10
2018-08-08T05:45:23.005Z,23.20
2018-08-08T05:47:52.642Z,23.20
2018-08-08T05:50:20.854Z,23.20
2018-08-08T05:52:49.026Z,23.20
2018-08-08T05:55:18.313Z,23.20
2018-08-08T05:57:46.657Z,23.20
2018-08-08T06:00:23.449Z,23.20
2018-08-08T06:02:51.729Z,23.20
2018-08-08T06:05:19.882Z,23.20
2018-08-08T06:07:48.101Z,23.30
2018-08-08T06:10:16.522Z,23.30
2018-08-08T06:12:44.901Z,23.40
2018-08-08T06:15:14.205Z,23.50
2018-08-08T06:17:42.397Z,23.50
2018-08-08T06:20:13.698Z,23.60
2018-08-08T06:22:42.967Z,23.60
2018-08-08T06:25:11.482Z,23.70
2018-08-08T06:27:40.470Z,23.70
2018-08-08T06:30:14.669Z,23.80
2018-08-08T06:32:42.987Z,23.90
2018-08-08T06:35:11.163Z,23.90
2018-08-08T06:37:39.350Z,24.00
2018-08-08T06:40:08.922Z,24.00
2018-08-08T06:42:37.086Z,24.10
2018-08-08T06:45:08.017Z,24.10
2018-08-08T06:47:36.206Z,24.20
2018-08-08T06:50:05.073Z,24.20
2018-08-08T06:52:33.471Z,24.20
2018-08-08T06:55:01.687Z,24.30
2018-08-08T06:57:29.969Z,24.30
2018-08-08T06:59:58.186Z,24.40
2018-08-08T07:02:26.337Z,24.40
2018-08-08T07:04:54.527Z,24.40
2018-08-08T07:07:22.730Z,24.50
2018-08-08T07:09:50.893Z,24.60
2018-08-08T07:12:19.054Z,24.60
2018-08-08T07:14:47.246Z,24.70
2018-08-08T07:17:15.434Z,24.80
2018-08-08T07:19:43.639Z,24.90
2018-08-08T07:22:11.855Z,25.00
2018-08-08T07:24:40.006Z,25.00
2018-08-08T07:27:08.192Z,25.00
2018-08-08T07:29:36.370Z,25.10
2018-08-08T07:32:04.570Z,25.10
2018-08-08T07:34:32.750Z,25.20
2018-08-08T07:37:00.844Z,25.20
2018-08-08T07:39:29.017Z,25.30
2018-08-08T07:41:57.193Z,25.30
2018-08-08T07:44:25.413Z,25.40
2018-08-08T07:46:53.586Z,25.40
2018-08-08T07:49:21.759Z,25.50
2018-08-08T07:51:49.943Z,25.60
2018-08-08T07:54:18.137Z,25.70
2018-08-08T07:56:46.333Z,25.80
2018-08-08T07:59:15.358Z,25.80
2018-08-08T08:01:43.520Z,25.70
2018-08-08T08:04:11.843Z,25.60
2018-08-08T08:06:39.988Z,25.60
2018-08-08T08:09:09.642Z,25.50
2018-08-08T08:11:37.753Z,25.50
2018-08-08T08:14:06.086Z,25.50
2018-08-08T08:16:34.297Z,25.50
2018-08-08T08:19:02.535Z,25.50
2018-08-08T08:21:30.800Z,25.50
2018-08-08T08:23:59.065Z,25.70
2018-08-08T08:26:27.246Z,25.80
2018-08-08T08:28:55.437Z,26.00
2018-08-08T08:31:23.621Z,26.20
2018-08-08T08:33:51.854Z,26.30
2018-08-08T08:36:20.002Z,26.40
2018-08-08T08:38:48.202Z,26.50
2018-08-08T08:41:16.478Z,26.70
2018-08-08T08:43:44.740Z,26.80
2018-08-08T08:46:12.845Z,26.80
2018-08-08T08:48:41.037Z,26.90
2018-08-08T08:51:09.218Z,27.00
2018-08-08T08:53:37.415Z,27.10
2018-08-08T08:56:05.606Z,27.10
2018-08-08T08:58:33.790Z,27.20
2018-08-08T09:01:01.982Z,27.30
2018-08-08T09:03:30.149Z,27.60
2018-08-08T09:05:58.338Z,27.70
2018-08-08T09:08:26.545Z,27.90
2018-08-08T09:10:54.709Z,27.90
2018-08-08T09:13:22.918Z,28.10
2018-08-08T09:15:51.090Z,28.10
2018-08-08T09:18:19.273Z,28.20
2018-08-08T09:20:47.465Z,28.40
2018-08-08T09:23:15.658Z,28.50
2018-08-08T09:25:43.837Z,28.60
2018-08-08T09:28:12.028Z,28.70
2018-08-08T09:30:40.259Z,28.80
2018-08-08T09:33:13.978Z,28.80
2018-08-08T09:35:42.114Z,28.80
2018-08-08T09:38:10.302Z,28.80
2018-08-08T09:40:38.495Z,28.90
2018-08-08T09:43:06.697Z,29.00
2018-08-08T09:45:34.880Z,29.00
2018-08-08T09:48:03.041Z,29.10
2018-08-08T09:50:31.166Z,29.20
2018-08-08T09:52:59.334Z,29.20
2018-08-08T09:55:27.570Z,29.40
2018-08-08T09:57:55.690Z,29.70
2018-08-08T10:00:28.955Z,29.90
2018-08-08T10:03:02.670Z,30.00
2018-08-08T10:05:30.821Z,30.00
2018-08-08T10:07:58.962Z,30.00
2018-08-08T10:10:27.152Z,30.10
2018-08-08T10:12:55.339Z,30.20
2018-08-08T10:15:23.549Z,30.20
2018-08-08T10:17:51.722Z,30.20
2018-08-08T10:20:19.889Z,30.40
2018-08-08T10:22:47.978Z,30.50
2018-08-08T10:25:16.174Z,30.70
2018-08-08T10:27:44.283Z,30.90
2018-08-08T10:30:12.414Z,30.90
2018-08-08T10:32:40.541Z,31.00
2018-08-08T10:35:09.878Z,31.20
2018-08-08T10:37:38.366Z,31.30
2018-08-08T10:40:07.793Z,31.40
2018-08-08T10:42:35.946Z,31.60
2018-08-08T10:45:04.712Z,31.70
2018-08-08T10:47:32.794Z,31.70
2018-08-08T10:50:00.906Z,31.80
2018-08-08T10:52:29.102Z,32.00
2018-08-08T10:54:57.278Z,32.10
2018-08-08T10:57:25.518Z,32.10
2018-08-08T10:59:53.674Z,32.40
2018-08-08T11:02:21.870Z,32.50
2018-08-08T11:04:50.038Z,32.50
2018-08-08T11:07:18.234Z,32.50
2018-08-08T11:09:46.410Z,32.50
2018-08-08T11:12:14.620Z,32.50
2018-08-08T11:14:42.778Z,32.60
2018-08-08T11:17:10.953Z,32.50
2018-08-08T11:19:39.157Z,32.50
2018-08-08T11:22:12.199Z,32.60
2018-08-08T11:24:40.369Z,32.50
2018-08-08T11:27:08.515Z,32.50
2018-08-08T11:29:36.633Z,32.50
2018-08-08T11:32:04.805Z,32.50
2018-08-08T11:34:33.010Z,32.70
2018-08-08T11:37:01.210Z,32.60
2018-08-08T11:39:29.301Z,32.70
2018-08-08T11:41:57.442Z,32.70
2018-08-08T11:44:25.629Z,32.90
2018-08-08T11:46:53.854Z,33.10
2018-08-08T11:49:21.994Z,33.20
2018-08-08T11:51:50.182Z,33.20
2018-08-08T11:54:18.374Z,32.90
2018-08-08T11:56:46.470Z,32.50
2018-08-08T11:59:14.715Z,32.00
2018-08-08T12:01:42.841Z,32.00
2018-08-08T12:04:11.018Z,32.40
2018-08-08T12:06:39.106Z,32.90
2018-08-08T12:09:08.289Z,33.10
2018-08-08T12:11:36.558Z,32.80
2018-08-08T12:14:05.747Z,32.50
2018-08-08T12:16:33.929Z,32.70
2018-08-08T12:19:02.176Z,33.00
2018-08-08T12:21:30.715Z,33.30
2018-08-08T12:23:58.886Z,33.40
2018-08-08T12:26:27.077Z,33.70
2018-08-08T12:28:55.290Z,34.10
2018-08-08T12:31:23.474Z,34.30
2018-08-08T12:33:51.642Z,34.10
2018-08-08T12:36:19.840Z,34.00
2018-08-08T12:38:48.014Z,34.00
2018-08-08T12:41:16.198Z,34.30
2018-08-08T12:43:44.385Z,34.50
2018-08-08T12:46:12.591Z,34.50
2018-08-08T12:48:40.759Z,34.50
2018-08-08T12:51:09.029Z,34.20
2018-08-08T12:53:37.103Z,34.20
2018-08-08T12:56:05.330Z,34.50
2018-08-08T12:58:33.514Z,34.50
2018-08-08T13:01:02.406Z,34.50
2018-08-08T13:03:30.606Z,34.80
2018-08-08T13:05:58.794Z,34.90
2018-08-08T13:08:26.962Z,35.00
2018-08-08T13:10:55.138Z,34.90
2018-08-08T13:16:06.193Z,35.30
2018-08-08T13:18:34.342Z,35.30
2018-08-08T13:21:02.585Z,35.40
2018-08-08T13:23:30.710Z,35.60
2018-08-08T13:25:58.910Z,35.70
2018-08-08T13:28:27.019Z,35.60
2018-08-08T13:30:55.190Z,35.40
2018-08-08T13:33:23.354Z,35.20
2018-08-08T13:35:51.550Z,35.20
2018-08-08T13:38:19.730Z,35.40
2018-08-08T13:40:47.914Z,35.50
2018-08-08T13:43:16.102Z,35.50
2018-08-08T13:45:44.373Z,35.60
2018-08-08T13:48:12.470Z,35.40
2018-08-08T13:50:40.573Z,35.50
2018-08-08T13:53:08.755Z,35.60
2018-08-08T13:55:36.997Z,35.80
2018-08-08T13:58:05.333Z,35.80
2018-08-08T14:00:33.411Z,35.60
2018-08-08T14:03:01.599Z,35.40
2018-08-08T14:05:29.794Z,35.20
2018-08-08T14:07:57.971Z,35.30
2018-08-08T14:10:26.182Z,35.20
2018-08-08T14:12:54.374Z,35.20
2018-08-08T14:15:22.557Z,35.20
2018-08-08T14:17:50.754Z,35.20
2018-08-08T14:20:18.945Z,35.10
2018-08-08T14:22:47.156Z,35.30
2018-08-08T14:25:15.310Z,35.50
2018-08-08T14:27:43.509Z,35.70
2018-08-08T14:30:11.694Z,35.80
2018-08-08T14:32:39.878Z,35.80
2018-08-08T14:35:08.878Z,35.70
2018-08-08T14:37:37.061Z,35.60
2018-08-08T14:40:05.731Z,35.50
2018-08-08T14:42:33.953Z,35.60
2018-08-08T14:45:02.145Z,35.70
2018-08-08T14:47:30.326Z,35.80
2018-08-08T14:49:58.502Z,35.80
2018-08-08T14:52:26.722Z,35.90
2018-08-08T14:54:54.873Z,35.80
2018-08-08T14:57:23.097Z,35.90
2018-08-08T14:59:51.254Z,35.70
2018-08-08T15:02:19.445Z,35.60
2018-08-08T15:04:47.634Z,35.40
2018-08-08T15:07:15.837Z,35.50
2018-08-08T15:09:43.961Z,35.60
2018-08-08T15:12:12.250Z,35.70
2018-08-08T15:14:40.351Z,35.80
2018-08-08T15:17:08.541Z,36.00
2018-08-08T15:19:36.723Z,35.80
2018-08-08T15:22:05.115Z,35.50
2018-08-08T15:24:33.301Z,35.30
2018-08-08T15:27:01.386Z,34.90
2018-08-08T15:29:29.573Z,34.90
2018-08-08T15:31:57.852Z,34.80
2018-08-08T15:34:25.944Z,34.80
2018-08-08T15:36:54.328Z,34.80
2018-08-08T15:39:22.351Z,34.70
2018-08-08T15:41:50.509Z,34.70
2018-08-08T15:44:18.690Z,34.70
2018-08-08T15:46:46.799Z,34.80
2018-08-08T15:49:14.965Z,34.80
2018-08-08T15:51:43.100Z,34.90
2018-08-08T15:54:11.227Z,35.00
2018-08-08T15:56:39.337Z,35.10
2018-08-08T15:59:07.545Z,35.10
2018-08-08T16:01:35.721Z,35.00
2018-08-08T16:04:03.895Z,35.10
2018-08-08T16:06:32.067Z,35.10
2018-08-08T16:09:00.503Z,35.00
2018-08-08T16:11:28.705Z,35.00
2018-08-08T16:13:56.858Z,35.00
2018-08-08T16:16:25.046Z,35.00
2018-08-08T16:18:53.441Z,34.80
2018-08-08T16:21:22.075Z,34.70
2018-08-08T16:23:50.235Z,34.50
2018-08-08T16:26:18.418Z,34.20
2018-08-08T16:28:46.602Z,33.90
2018-08-08T16:31:14.793Z,33.60
2018-08-08T16:33:42.981Z,33.60
2018-08-08T16:36:11.153Z,33.70
2018-08-08T16:38:39.350Z,33.70
2018-08-08T16:41:07.526Z,33.70
2018-08-08T16:43:35.715Z,33.50
2018-08-08T16:46:03.902Z,33.30
2018-08-08T16:48:32.169Z,33.10
2018-08-08T16:51:00.394Z,32.90
2018-08-08T16:53:28.778Z,32.70
2018-08-08T16:55:56.945Z,32.50
2018-08-08T16:58:25.196Z,32.40
2018-08-08T17:00:53.322Z,32.30
2018-08-08T17:03:21.516Z,32.20
2018-08-08T17:05:49.798Z,32.00
2018-08-08T17:08:17.974Z,31.80
2018-08-08T17:10:46.142Z,31.70
2018-08-08T17:13:14.239Z,31.70
2018-08-08T17:15:42.423Z,31.60
2018-08-08T17:18:10.611Z,31.40
2018-08-08T17:20:38.847Z,31.30
2018-08-08T17:23:06.986Z,31.20
2018-08-08T17:25:35.062Z,31.20
2018-08-08T17:28:03.257Z,31.10
2018-08-08T17:30:32.363Z,31.00
2018-08-08T17:33:00.819Z,30.90
2018-08-08T17:35:28.950Z,30.80
2018-08-08T17:37:57.141Z,30.60
2018-08-08T17:40:25.597Z,30.50
2018-08-08T17:42:53.724Z,30.40
2018-08-08T17:45:21.894Z,30.40
2018-08-08T17:47:50.086Z,30.30
2018-08-08T17:50:18.320Z,30.20
2018-08-08T17:52:46.465Z,30.20
2018-08-08T17:55:14.707Z,30.00
2018-08-08T17:57:42.826Z,29.90
2018-08-08T18:00:11.005Z,29.80
2018-08-08T18:02:39.101Z,29.80
2018-08-08T18:05:07.295Z,29.70
2018-08-08T18:07:35.509Z,29.70
2018-08-08T18:10:03.848Z,29.70
2018-08-08T18:12:31.946Z,29.70
2018-08-08T18:15:00.738Z,29.60
2018-08-08T18:17:28.830Z,29.60
2018-08-08T18:19:57.023Z,29.50
2018-08-08T18:22:25.220Z,29.40
2018-08-08T18:24:53.405Z,29.40
2018-08-08T18:27:21.620Z,29.30
2018-08-08T18:29:49.773Z,29.20
2018-08-08T18:32:17.954Z,29.10
2018-08-08T18:34:46.143Z,29.00
2018-08-08T18:37:14.318Z,28.90
2018-08-08T18:39:42.956Z,28.90
2018-08-08T18:42:11.358Z,28.80
2018-08-08T18:44:39.910Z,28.60
2018-08-08T18:47:08.102Z,28.50
2018-08-08T18:49:36.306Z,28.40
2018-08-08T18:52:05.025Z,28.30
2018-08-08T18:54:33.177Z,28.20
2018-08-08T18:57:01.380Z,28.10
2018-08-08T18:59:29.563Z,28.00
2018-08-08T19:01:57.733Z,27.90
2018-08-08T19:04:25.939Z,27.80
2018-08-08T19:06:54.107Z,27.70
2018-08-08T19:09:22.334Z,27.60
2018-08-08T19:11:50.486Z,27.60
2018-08-08T19:14:18.669Z,27.50
2018-08-08T19:16:47.878Z,27.40
2018-08-08T19:19:16.082Z,27.30
2018-08-08T19:21:45.886Z,27.20
2018-08-08T19:24:14.086Z,27.20
2018-08-08T19:26:42.590Z,27.10
2018-08-08T19:29:11.700Z,27.10
2018-08-08T19:31:39.866Z,27.00
2018-08-08T19:34:09.976Z,27.00
2018-08-08T19:36:38.550Z,26.90
2018-08-08T19:39:08.459Z,26.80
2018-08-08T19:41:36.633Z,26.80
2018-08-08T19:44:04.946Z,26.80
2018-08-08T19:46:33.234Z,26.70
2018-08-08T19:49:01.543Z,26.70
2018-08-08T19:51:29.671Z,26.60
2018-08-08T19:53:57.850Z,26.50
2018-08-08T19:56:26.046Z,26.50
2018-08-08T19:58:54.681Z,26.50
2018-08-08T20:01:22.914Z,26.40
2018-08-08T20:03:51.022Z,26.40
2018-08-08T20:06:19.209Z,26.30
2018-08-08T20:08:47.330Z,26.30
2018-08-08T20:11:15.503Z,26.20
2018-08-08T20:13:43.706Z,26.10
2018-08-08T20:16:11.866Z,26.10
2018-08-08T20:18:40.074Z,26.10
2018-08-08T20:21:08.257Z,26.00
2018-08-08T20:23:36.430Z,25.90
2018-08-08T20:26:04.642Z,25.90
2018-08-08T20:28:32.806Z,25.80
2018-08-08T20:31:00.991Z,25.70
2018-08-08T20:33:29.170Z,25.60
2018-08-08T20:35:57.366Z,25.60
2018-08-08T20:38:25.536Z,25.60
2018-08-08T20:40:53.786Z,25.50
2018-08-08T20:43:21.937Z,25.40
2018-08-08T20:45:50.109Z,25.40
2018-08-08T20:48:18.282Z,25.40
2018-08-08T20:50:46.481Z,25.40
2018-08-08T20:53:14.665Z,25.30
2018-08-08T20:55:42.857Z,25.20
2018-08-08T20:58:11.042Z,25.20
2018-08-08T21:00:39.237Z,25.20
2018-08-08T21:03:07.621Z,25.10
2018-08-08T21:05:35.827Z,25.00
2018-08-08T21:08:03.998Z,25.00
2018-08-08T21:10:33.181Z,25.00
2018-08-08T21:13:02.277Z,25.00
2018-08-08T21:15:30.380Z,24.90
2018-08-08T21:17:58.557Z,24.90
2018-08-08T21:20:26.755Z,24.80
2018-08-08T21:22:54.928Z,24.80
2018-08-08T21:25:23.127Z,24.80
2018-08-08T21:27:51.310Z,24.80
2018-08-08T21:30:19.564Z,24.80
2018-08-08T21:32:47.680Z,24.70
2018-08-08T21:35:15.874Z,24.70
2018-08-08T21:37:44.082Z,24.70
2018-08-08T21:40:12.238Z,24.60
2018-08-08T21:42:40.418Z,24.50
2018-08-08T21:45:08.615Z,24.50
2018-08-08T21:47:36.934Z,24.50
2018-08-08T21:50:05.655Z,24.40
2018-08-08T21:52:33.913Z,24.40
2018-08-08T21:55:13.486Z,24.30
2018-08-08T21:57:53.538Z,24.30
2018-08-08T22:00:33.162Z,24.20
2018-08-08T22:05:16.581Z,24.20
2018-08-08T22:07:56.082Z,24.00
2018-08-08T22:10:35.886Z,23.90
2018-08-08T22:13:15.447Z,23.90
2018-08-08T22:15:55.128Z,23.80
2018-08-08T22:18:33.402Z,23.80
2018-08-08T22:21:01.577Z,23.70
2018-08-08T22:23:29.746Z,23.70
2018-08-08T22:25:57.863Z,23.70
2018-08-08T22:28:26.042Z,23.70
2018-08-08T22:30:54.217Z,23.70
2018-08-08T22:33:22.414Z,23.70
2018-08-08T22:35:50.581Z,23.60
2018-08-08T22:38:18.706Z,23.60
2018-08-08T22:40:46.856Z,23.60
2018-08-08T22:43:14.946Z,23.60
2018-08-08T22:45:43.121Z,23.60
2018-08-08T22:48:11.226Z,23.60
2018-08-08T22:50:39.410Z,23.50
2018-08-08T22:53:07.623Z,23.50
2018-08-08T22:55:35.787Z,23.40
2018-08-08T22:58:04.010Z,23.40
2018-08-08T23:00:32.149Z,23.40
2018-08-08T23:03:00.338Z,23.30
2018-08-08T23:05:28.523Z,23.30
2018-08-08T23:07:56.726Z,23.30
2018-08-08T23:10:24.929Z,23.20
2018-08-08T23:12:53.114Z,23.20
2018-08-08T23:15:21.330Z,23.20
2018-08-08T23:17:49.482Z,23.20
2018-08-08T23:20:17.661Z,23.20
2018-08-08T23:22:52.807Z,23.10
2018-08-08T23:25:21.061Z,23.10
2018-08-08T23:27:49.617Z,23.00
2018-08-08T23:30:17.777Z,23.00
2018-08-08T23:32:46.125Z,23.00
2018-08-08T23:35:14.182Z,22.90
2018-08-08T23:37:42.389Z,22.90
2018-08-08T23:40:11.461Z,22.90
2018-08-08T23:42:39.762Z,22.80
2018-08-08T23:45:08.662Z,22.80
2018-08-08T23:47:36.845Z,22.80
2018-08-08T23:50:05.750Z,22.70
2018-08-08T23:52:33.960Z,22.70
2018-08-08T23:55:02.131Z,22.60
2018-08-08T23:57:30.310Z,22.60
2018-08-08T23:59:58.502Z,22.60
